Time;durP1;ratioP1;P1;durP2;ratioP2;P2;SDS_P1;SDS_P2;PMS_P1;PMS_P2;Temp;Humidity;BMP_temperature;BMP_pressure;BME280_temperature;BME280_humidity;BME280_pressure;Samples;Min_cycle;Max_cycle;Signal;HPM_P1;HPM_P2
2022/12/10 00:00:39;;;;;;;31.98;17.13;;;3.20;99.90;;;;;;4900325;29;20538;-65
2022/12/10 00:03:04;;;;;;;27.67;15.10;;;3.20;99.90;;;;;;4900318;29;20379;-66
2022/12/10 00:05:33;;;;;;;32.73;16.70;;;3.20;99.90;;;;;;4900238;29;20036;-66
2022/12/10 00:07:59;;;;;;;27.63;15.15;;;3.20;99.90;;;;;;4900068;29;20348;-65
2022/12/10 00:10:24;;;;;;;29.43;15.97;;;3.20;99.90;;;;;;4900310;29;20073;-66
2022/12/10 00:12:50;;;;;;;28.50;15.53;;;3.20;99.90;;;;;;4899768;29;20056;-65
2022/12/10 00:15:16;;;;;;;27.30;15.57;;;3.20;99.90;;;;;;4900843;29;20025;-66
2022/12/10 00:17:42;;;;;;;29.25;15.55;;;3.20;99.90;;;;;;4900527;29;20025;-66
2022/12/10 00:20:08;;;;;;;29.52;15.82;;;3.20;99.90;;;;;;4900409;29;20037;-65
2022/12/10 00:22:34;;;;;;;27.65;15.02;;;3.10;99.90;;;;;;4900568;29;20035;-66
2022/12/10 00:24:59;;;;;;;30.00;16.30;;;3.10;99.90;;;;;;4900345;29;20041;-66
2022/12/10 00:27:25;;;;;;;29.47;16.33;;;3.00;99.90;;;;;;4899202;29;20435;-65
2022/12/10 00:29:50;;;;;;;29.03;15.27;;;3.00;99.90;;;;;;4900323;29;20039;-66
2022/12/10 00:32:16;;;;;;;30.33;15.63;;;3.00;99.90;;;;;;4899932;29;20047;-66
2022/12/10 00:34:41;;;;;;;30.87;16.33;;;3.00;99.90;;;;;;4898919;29;20060;-66
2022/12/10 00:37:07;;;;;;;29.53;16.03;;;3.00;99.90;;;;;;4900129;29;20041;-65
2022/12/10 00:39:32;;;;;;;28.07;15.57;;;3.00;99.90;;;;;;4900349;29;20028;-66
2022/12/10 00:41:58;;;;;;;30.20;15.80;;;3.00;99.90;;;;;;4900303;29;20395;-65
2022/12/10 00:44:23;;;;;;;30.13;15.67;;;3.00;99.90;;;;;;4899843;29;20378;-69
2022/12/10 00:46:49;;;;;;;25.53;14.37;;;3.00;99.90;;;;;;4898367;29;20024;-66
2022/12/10 00:49:14;;;;;;;29.77;16.13;;;3.00;99.90;;;;;;4899636;29;20382;-66
2022/12/10 00:51:40;;;;;;;29.43;15.40;;;3.00;99.90;;;;;;4899228;29;20028;-66
2022/12/10 00:54:07;;;;;;;29.23;16.33;;;3.00;99.90;;;;;;4898265;29;20031;-66
2022/12/10 00:56:33;;;;;;;30.00;16.20;;;3.00;99.90;;;;;;4900101;29;20059;-66
2022/12/10 00:59:00;;;;;;;33.53;17.48;;;3.00;99.90;;;;;;4899916;29;20111;-66
2022/12/10 01:01:34;;;;;;;28.00;16.25;;;2.90;99.90;;;;;;4898478;29;20037;-65
2022/12/10 01:04:04;;;;;;;30.80;16.42;;;3.00;99.90;;;;;;4899898;29;20040;-66
2022/12/10 01:06:35;;;;;;;29.02;15.95;;;3.00;99.90;;;;;;4899388;29;20035;-66
2022/12/10 01:09:06;;;;;;;30.05;16.45;;;3.00;99.90;;;;;;4900076;29;20024;-65
2022/12/10 01:11:39;;;;;;;27.83;14.98;;;2.90;99.90;;;;;;4899525;29;20092;-65
2022/12/10 01:14:07;;;;;;;29.58;15.95;;;2.90;99.90;;;;;;4899013;29;20138;-65
2022/12/10 01:16:33;;;;;;;28.48;15.90;;;2.90;99.90;;;;;;4899722;29;20028;-65
2022/12/10 01:18:59;;;;;;;27.93;15.33;;;2.90;99.90;;;;;;4902892;29;20543;-65
2022/12/10 01:21:26;;;;;;;30.48;17.05;;;2.90;99.90;;;;;;4903635;29;20279;-66
2022/12/10 01:23:53;;;;;;;34.35;16.95;;;2.90;99.90;;;;;;4904615;29;20041;-66
2022/12/10 01:26:25;;;;;;;28.58;15.45;;;2.90;99.90;;;;;;4905233;29;20031;-66
2022/12/10 01:28:52;;;;;;;31.63;16.10;;;2.90;99.90;;;;;;4905790;29;20096;-65
2022/12/10 01:31:21;;;;;;;30.33;16.10;;;2.90;99.90;;;;;;4905719;29;20020;-65
2022/12/10 01:33:48;;;;;;;31.20;16.30;;;3.00;99.90;;;;;;4905835;29;20029;-65
2022/12/10 01:36:20;;;;;;;29.33;16.33;;;2.90;99.90;;;;;;4903540;29;20025;-64
2022/12/10 01:38:46;;;;;;;32.45;16.35;;;2.90;99.90;;;;;;4901428;29;20029;-65
2022/12/10 01:41:27;;;;;;;31.73;16.55;;;2.90;99.90;;;;;;4899980;29;20036;-65
2022/12/10 01:44:00;;;;;;;30.23;15.45;;;2.90;99.90;;;;;;4899891;29;20482;-65
2022/12/10 01:46:29;;;;;;;30.85;16.70;;;2.80;99.90;;;;;;4899992;29;20032;-66
2022/12/10 01:48:56;;;;;;;29.98;16.10;;;2.80;99.90;;;;;;4899438;29;20385;-64
2022/12/10 01:51:23;;;;;;;28.25;15.85;;;2.80;99.90;;;;;;4898505;29;20363;-64
2022/12/10 01:53:50;;;;;;;27.45;15.80;;;2.80;99.90;;;;;;4900760;29;20039;-64
2022/12/10 01:56:16;;;;;;;;;;;2.90;99.90;;;;;;4906233;29;20036;-64
2022/12/10 01:58:43;;;;;;;30.42;15.02;;;2.90;99.90;;;;;;4898585;29;19907;-63
2022/12/10 02:01:11;;;;;;;27.63;15.02;;;2.90;99.90;;;;;;4898336;29;20100;-65
2022/12/10 02:04:15;;;;;;;30.38;16.60;;;2.90;99.90;;;;;;4898395;29;20046;-64
2022/12/10 02:06:43;;;;;;;27.40;14.95;;;2.90;99.90;;;;;;4898200;29;20138;-64
2022/12/10 02:09:21;;;;;;;26.60;14.50;;;2.80;99.90;;;;;;4897123;29;20398;-64
2022/12/10 02:11:55;;;;;;;32.28;17.10;;;2.80;99.90;;;;;;4898356;29;20104;-64
2022/12/10 02:14:34;;;;;;;30.17;16.13;;;2.90;99.90;;;;;;4898425;29;20029;-64
2022/12/10 02:17:05;;;;;;;31.92;16.60;;;2.80;99.90;;;;;;4898692;29;20028;-65
2022/12/10 02:19:52;;;;;;;28.05;14.80;;;2.70;99.90;;;;;;4898547;29;20386;-66
2022/12/10 02:22:20;;;;;;;31.50;16.27;;;2.70;99.90;;;;;;4897976;29;20119;-65
2022/12/10 02:24:48;;;;;;;33.95;17.20;;;2.70;99.90;;;;;;4898258;29;20051;-65
2022/12/10 02:27:21;;;;;;;33.08;17.08;;;2.70;99.90;;;;;;4898200;29;20025;-65
2022/12/10 02:29:49;;;;;;;32.58;17.02;;;2.80;99.90;;;;;;4899685;29;20096;-65
2022/12/10 02:32:19;;;;;;;30.92;16.67;;;2.80;99.90;;;;;;4898225;29;20025;-65
2022/12/10 02:34:55;;;;;;;30.08;16.40;;;2.70;99.90;;;;;;4898773;29;20166;-65
2022/12/10 02:37:29;;;;;;;28.85;16.63;;;2.60;99.90;;;;;;4897982;29;20036;-65
2022/12/10 02:39:58;;;;;;;27.67;15.63;;;2.60;99.90;;;;;;4896576;29;20035;-65
2022/12/10 02:42:26;;;;;;;29.20;15.65;;;2.60;99.90;;;;;;4897866;29;20451;-64
2022/12/10 02:44:53;;;;;;;33.10;16.27;;;2.70;99.90;;;;;;4898108;29;20028;-65
2022/12/10 02:47:20;;;;;;;27.77;15.48;;;2.70;99.90;;;;;;4896887;29;20108;-65
2022/12/10 02:49:49;;;;;;;31.98;16.23;;;2.70;99.90;;;;;;4897922;29;20027;-65
2022/12/10 02:52:18;;;;;;;29.73;15.55;;;2.70;99.90;;;;;;4897386;29;20033;-64
2022/12/10 02:54:47;;;;;;;30.20;15.93;;;2.70;99.90;;;;;;4897761;29;20024;-64
2022/12/10 02:57:21;;;;;;;31.55;15.95;;;2.70;99.90;;;;;;4897732;29;20033;-64
2022/12/10 03:00:00;;;;;;;30.30;15.30;;;2.70;99.90;;;;;;4897778;29;20064;-64
2022/12/10 03:02:38;;;;;;;31.15;16.02;;;2.70;99.90;;;;;;4897712;29;20443;-65
2022/12/10 03:05:27;;;;;;;31.98;16.27;;;2.70;99.90;;;;;;4897542;29;20386;-65
2022/12/10 03:08:02;;;;;;;29.67;16.30;;;2.70;99.90;;;;;;4899488;29;20036;-65
2022/12/10 03:10:35;;;;;;;32.10;16.45;;;2.70;99.90;;;;;;4901478;29;20452;-65
2022/12/10 03:13:08;;;;;;;29.02;15.60;;;2.60;99.90;;;;;;4900874;29;20070;-65
2022/12/10 03:15:38;;;;;;;33.58;17.15;;;2.70;99.90;;;;;;4900911;29;20032;-64
2022/12/10 03:18:05;;;;;;;32.03;17.15;;;2.70;99.90;;;;;;4900863;29;20542;-63
2022/12/10 03:20:38;;;;;;;32.85;16.52;;;2.70;99.90;;;;;;4899578;29;20028;-66
2022/12/10 03:23:11;;;;;;;35.13;17.73;;;2.60;99.90;;;;;;4900691;29;20038;-65
2022/12/10 03:25:38;;;;;;;35.15;17.52;;;2.60;99.90;;;;;;4901156;29;20025;-65
2022/12/10 03:28:04;;;;;;;34.97;17.73;;;2.60;99.90;;;;;;4900880;29;20025;-65
2022/12/10 03:30:32;;;;;;;36.45;19.23;;;2.60;99.90;;;;;;4899389;29;20512;-65
2022/12/10 03:32:58;;;;;;;35.53;18.80;;;2.60;99.90;;;;;;4900732;29;20029;-65
2022/12/10 03:35:24;;;;;;;33.38;17.83;;;2.70;99.90;;;;;;4900784;29;20024;-65
2022/12/10 03:37:51;;;;;;;33.58;17.65;;;2.60;99.90;;;;;;4900443;29;20044;-65
2022/12/10 03:40:20;;;;;;;39.08;18.83;;;2.60;99.90;;;;;;4900688;29;20376;-66
2022/12/10 03:42:46;;;;;;;37.05;19.55;;;2.70;99.90;;;;;;4900488;29;20040;-65
2022/12/10 03:45:11;;;;;;;31.33;18.50;;;2.70;99.90;;;;;;4900568;29;20398;-65
2022/12/10 03:47:37;;;;;;;31.80;17.53;;;2.70;99.90;;;;;;4900468;29;20031;-65
2022/12/10 03:50:03;;;;;;;33.37;17.53;;;2.70;99.90;;;;;;4900360;29;20108;-65
2022/12/10 03:52:28;;;;;;;35.10;18.05;;;2.70;99.90;;;;;;4900111;29;20107;-65
2022/12/10 03:54:54;;;;;;;35.77;17.23;;;2.70;99.90;;;;;;4900576;29;20076;-65
2022/12/10 03:57:20;;;;;;;35.03;19.07;;;2.60;99.90;;;;;;4900402;29;20043;-65
2022/12/10 03:59:45;;;;;;;33.03;17.63;;;2.60;99.90;;;;;;4900489;29;20038;-65
2022/12/10 04:02:10;;;;;;;36.07;17.27;;;2.60;99.90;;;;;;4900750;29;20041;-66
2022/12/10 04:04:37;;;;;;;38.50;19.23;;;2.60;99.90;;;;;;4900398;29;20033;-65
2022/12/10 04:07:02;;;;;;;34.83;18.52;;;2.60;99.90;;;;;;4900547;29;20088;-65
2022/12/10 04:09:28;;;;;;;36.27;18.07;;;2.60;99.90;;;;;;4900620;29;20143;-65
2022/12/10 04:11:58;;;;;;;39.43;20.43;;;2.60;99.90;;;;;;4900201;29;20037;-65
2022/12/10 04:17:09;;;;;;;35.42;17.98;;;2.60;99.90;;;;;;4900547;29;20040;-65
2022/12/10 04:19:35;;;;;;;32.73;17.70;;;2.70;99.90;;;;;;4900058;29;20028;-65
2022/12/10 04:27:32;;;;;;;36.67;18.52;;;2.60;99.90;;;;;;4900387;29;20390;-65
2022/12/10 04:29:59;;;;;;;37.25;19.55;;;2.60;99.90;;;;;;4899934;29;20023;-64
2022/12/10 04:32:27;;;;;;;36.75;19.17;;;2.60;99.90;;;;;;4898370;29;20025;-64
2022/12/10 04:34:53;;;;;;;37.17;19.38;;;2.60;99.90;;;;;;4900161;29;20515;-64
2022/12/10 04:37:19;;;;;;;39.17;20.23;;;2.50;99.90;;;;;;4898470;29;20029;-64
2022/12/10 04:39:45;;;;;;;38.97;19.83;;;2.50;99.90;;;;;;4899838;29;20028;-64
2022/12/10 04:42:11;;;;;;;35.88;18.67;;;2.50;99.90;;;;;;4899495;29;20064;-66
2022/12/10 04:44:37;;;;;;;39.22;19.73;;;2.50;99.90;;;;;;4899827;29;20033;-65
2022/12/10 04:47:04;;;;;;;39.13;19.05;;;2.50;99.90;;;;;;4900434;29;20059;-65
2022/12/10 04:49:30;;;;;;;37.92;18.73;;;2.40;99.90;;;;;;4899770;29;20060;-65
2022/12/10 04:51:56;;;;;;;38.92;18.75;;;2.40;99.90;;;;;;4899032;29;20554;-66
2022/12/10 04:54:22;;;;;;;35.30;18.97;;;2.40;99.90;;;;;;4899340;29;20031;-65
2022/12/10 04:56:48;;;;;;;37.78;19.15;;;2.30;99.90;;;;;;4899513;29;20107;-64
2022/12/10 04:59:14;;;;;;;37.07;19.37;;;2.30;99.90;;;;;;4899164;29;20454;-66
2022/12/10 05:01:40;;;;;;;37.95;19.42;;;2.30;99.90;;;;;;4898933;29;20505;-65
2022/12/10 05:04:07;;;;;;;39.07;19.73;;;2.30;99.90;;;;;;4899214;29;20036;-65
2022/12/10 05:06:34;;;;;;;41.60;20.05;;;2.30;99.90;;;;;;4898876;29;20032;-65
2022/12/10 05:09:00;;;;;;;;;;;2.30;99.90;;;;;;4899273;29;20205;-64
2022/12/10 05:11:28;;;;;;;41.08;18.67;;;2.20;99.90;;;;;;4898743;29;20369;-65
2022/12/10 05:13:54;;;;;;;42.67;19.92;;;2.20;99.90;;;;;;4898864;29;20036;-64
2022/12/10 05:16:21;;;;;;;41.05;20.25;;;2.30;99.90;;;;;;4898609;29;20032;-64
2022/12/10 05:18:47;;;;;;;36.38;19.80;;;2.30;99.90;;;;;;4898601;29;20032;-64
2022/12/10 05:21:16;;;;;;;41.83;20.38;;;2.20;99.90;;;;;;4898694;29;20024;-64
2022/12/10 05:23:44;;;;;;;41.40;20.25;;;2.30;99.90;;;;;;4898673;29;20044;-64
2022/12/10 05:26:16;;;;;;;39.88;20.10;;;2.20;99.90;;;;;;4898728;29;20032;-64
2022/12/10 05:28:51;;;;;;;38.55;19.27;;;2.20;99.90;;;;;;4898863;29;20028;-64
2022/12/10 05:31:22;;;;;;;38.35;19.73;;;2.20;99.90;;;;;;4897863;29;20030;-64
2022/12/10 05:33:47;;;;;;;36.65;19.40;;;2.20;99.90;;;;;;4898647;29;20032;-65
2022/12/10 05:36:15;;;;;;;38.03;18.90;;;2.20;99.90;;;;;;4898183;29;20038;-64
2022/12/10 05:38:41;;;;;;;38.72;19.52;;;2.20;99.90;;;;;;4897181;29;20029;-66
2022/12/10 05:41:27;;;;;;;42.88;20.35;;;2.30;99.90;;;;;;4898572;29;20024;-65
2022/12/10 05:43:57;;;;;;;43.30;21.23;;;2.20;99.90;;;;;;4898402;29;20028;-65
2022/12/10 05:46:29;;;;;;;39.50;20.00;;;2.30;99.90;;;;;;4898688;29;20352;-64
2022/12/10 05:48:54;;;;;;;41.58;20.08;;;2.20;99.90;;;;;;4898578;29;20052;-64
2022/12/10 05:51:23;;;;;;;41.30;20.07;;;2.20;99.90;;;;;;4897850;29;20064;-64
2022/12/10 05:53:50;;;;;;;41.28;20.70;;;2.20;99.90;;;;;;4898599;29;20028;-65
2022/12/10 05:56:18;;;;;;;38.10;20.27;;;2.20;99.90;;;;;;4898721;29;20080;-65
2022/12/10 05:58:45;;;;;;;41.30;20.58;;;2.20;99.90;;;;;;4898328;29;20027;-65
2022/12/10 06:01:17;;;;;;;45.08;22.20;;;2.10;99.90;;;;;;4898499;29;20036;-65
2022/12/10 06:03:43;;;;;;;39.00;20.38;;;2.10;99.90;;;;;;4898135;29;20048;-65
2022/12/10 06:06:10;;;;;;;43.97;20.55;;;2.10;99.90;;;;;;4897506;29;20163;-63
2022/12/10 06:08:36;;;;;;;;;;;2.20;99.90;;;;;;4898207;29;20033;-64
2022/12/10 06:11:06;;;;;;;39.25;18.83;;;2.10;99.90;;;;;;4897855;29;19907;-65
2022/12/10 06:13:32;;;;;;;40.22;20.02;;;2.10;99.90;;;;;;4898183;29;20036;-65
2022/12/10 06:15:58;;;;;;;41.38;20.17;;;2.10;99.90;;;;;;4897968;29;20036;-66
2022/12/10 06:18:24;;;;;;;40.13;20.20;;;2.10;99.90;;;;;;4897973;29;20047;-65
2022/12/10 06:20:49;;;;;;;44.03;20.97;;;2.20;99.90;;;;;;4897939;29;20033;-65
2022/12/10 06:23:15;;;;;;;40.07;20.13;;;2.10;99.90;;;;;;4897728;29;20040;-65
2022/12/10 06:25:40;;;;;;;41.53;20.37;;;2.20;99.90;;;;;;4898191;29;20506;-65
2022/12/10 06:28:07;;;;;;;43.20;20.65;;;2.10;99.90;;;;;;4897942;29;20112;-65
2022/12/10 06:30:33;;;;;;;40.13;20.52;;;2.10;99.90;;;;;;4897869;29;20032;-65
2022/12/10 06:32:59;;;;;;;40.10;19.52;;;2.10;99.90;;;;;;4897623;29;20100;-65
2022/12/10 06:35:25;;;;;;;37.10;19.60;;;2.00;99.90;;;;;;4898036;29;20036;-65
2022/12/10 06:37:51;;;;;;;43.70;21.33;;;2.10;99.90;;;;;;4897442;29;20033;-65
2022/12/10 06:40:17;;;;;;;43.87;21.03;;;2.20;99.90;;;;;;4897782;29;20502;-65
2022/12/10 06:42:43;;;;;;;41.95;20.02;;;2.20;99.90;;;;;;4900287;29;20037;-65
2022/12/10 06:45:08;;;;;;;40.43;19.23;;;2.10;99.90;;;;;;4901272;29;20090;-65
2022/12/10 06:47:34;;;;;;;41.93;20.20;;;2.10;99.90;;;;;;4901543;29;20083;-65
2022/12/10 06:49:59;;;;;;;42.00;21.47;;;2.10;99.90;;;;;;4900136;29;20288;-64
2022/12/10 06:52:25;;;;;;;43.23;20.53;;;2.10;99.90;;;;;;4901220;29;20501;-65
2022/12/10 06:54:51;;;;;;;37.93;18.87;;;2.10;99.90;;;;;;4901732;29;20025;-65
2022/12/10 06:57:16;;;;;;;39.25;19.15;;;2.10;99.90;;;;;;4901442;29;20504;-65
2022/12/10 06:59:42;;;;;;;39.77;20.00;;;2.10;99.90;;;;;;4901480;29;20530;-65
2022/12/10 07:02:09;;;;;;;40.63;18.67;;;2.10;99.90;;;;;;4900003;29;20395;-65
2022/12/10 07:04:35;;;;;;;42.05;19.35;;;2.10;99.90;;;;;;4901486;29;20123;-65
2022/12/10 07:07:00;;;;;;;38.30;18.67;;;2.10;99.90;;;;;;4901057;29;20060;-64
2022/12/10 07:09:26;;;;;;;41.23;19.83;;;2.10;99.90;;;;;;4901157;29;20020;-65
2022/12/10 07:11:51;;;;;;;39.07;19.27;;;2.00;99.90;;;;;;4901049;29;20028;-65
2022/12/10 07:14:18;;;;;;;42.10;19.07;;;2.00;99.90;;;;;;4901646;29;20116;-65
2022/12/10 07:16:43;;;;;;;;;;;2.00;99.90;;;;;;4901638;29;20032;-65
2022/12/10 07:19:11;;;;;;;42.38;19.80;;;2.00;99.90;;;;;;4900993;29;20425;-65
2022/12/10 07:21:40;;;;;;;41.00;18.90;;;2.00;99.90;;;;;;4901730;29;20028;-65
2022/12/10 07:24:10;;;;;;;39.03;19.50;;;2.00;99.90;;;;;;4910680;29;20044;-65
2022/12/10 07:26:40;;;;;;;42.45;19.55;;;1.90;99.90;;;;;;4905492;29;20107;-65
2022/12/10 07:29:09;;;;;;;39.03;19.48;;;2.00;99.90;;;;;;4904799;29;20096;-65
2022/12/10 07:31:35;;;;;;;37.60;18.00;;;2.00;99.90;;;;;;4918648;23;20446;-64
2022/12/10 07:34:01;;;;;;;40.30;19.08;;;2.00;99.90;;;;;;4901840;29;20080;-63
2022/12/10 07:36:27;;;;;;;41.47;20.97;;;1.90;99.90;;;;;;4900984;29;20033;-63
2022/12/10 07:38:54;;;;;;;40.60;20.10;;;2.00;99.90;;;;;;4901317;29;20029;-64
2022/12/10 07:41:21;;;;;;;40.10;19.38;;;2.00;99.90;;;;;;4900119;29;20033;-64
2022/12/10 07:43:47;;;;;;;40.70;19.58;;;1.90;99.90;;;;;;4890764;29;20455;-64
2022/12/10 07:46:19;;;;;;;42.00;19.23;;;1.90;99.90;;;;;;4899461;29;20056;-62
2022/12/10 07:48:47;;;;;;;42.03;19.33;;;2.00;99.90;;;;;;4900439;29;20360;-63
2022/12/10 07:51:13;;;;;;;36.70;18.23;;;2.00;99.90;;;;;;4898725;29;20055;-62
2022/12/10 07:53:39;;;;;;;39.10;19.95;;;2.00;99.90;;;;;;4906571;29;20485;-61
2022/12/10 07:56:05;;;;;;;37.63;18.83;;;2.00;99.90;;;;;;4908739;29;20164;-64
2022/12/10 07:58:31;;;;;;;39.80;19.48;;;2.00;99.90;;;;;;4919568;29;20049;-64
2022/12/10 08:00:57;;;;;;;40.03;19.80;;;2.00;99.90;;;;;;4897361;29;20039;-64
2022/12/10 08:03:23;;;;;;;37.67;18.13;;;2.10;99.90;;;;;;4885805;29;20119;-63
2022/12/10 08:05:59;;;;;;;38.20;19.00;;;2.10;99.90;;;;;;4880862;29;20029;-63
2022/12/10 08:08:25;;;;;;;37.60;19.25;;;2.10;99.90;;;;;;4882367;29;20037;-64
2022/12/10 08:10:51;;;;;;;34.23;17.03;;;2.10;99.90;;;;;;4881164;29;20081;-63
2022/12/10 08:13:16;;;;;;;35.60;18.20;;;2.10;99.90;;;;;;4888434;29;20032;-64
2022/12/10 08:15:42;;;;;;;35.57;17.77;;;2.10;99.90;;;;;;4900130;29;20040;-64
2022/12/10 08:18:07;;;;;;;34.53;16.70;;;2.10;99.90;;;;;;4893280;29;20123;-65
2022/12/10 08:20:33;;;;;;;35.47;17.93;;;2.10;99.90;;;;;;4881738;29;20035;-64
2022/12/10 08:22:58;;;;;;;35.47;17.93;;;2.10;99.90;;;;;;4898471;29;20032;-64
2022/12/10 08:25:24;;;;;;;34.03;17.20;;;2.10;99.90;;;;;;4900513;29;20083;-63
2022/12/10 08:27:49;;;;;;;37.13;18.40;;;2.20;99.90;;;;;;4888221;29;20375;-63
2022/12/10 08:30:15;;;;;;;76.47;28.13;;;2.20;99.90;;;;;;4884872;29;20033;-64
2022/12/10 08:32:40;;;;;;;35.47;17.43;;;2.20;99.90;;;;;;4901954;29;20379;-64
2022/12/10 08:35:06;;;;;;;37.73;18.40;;;2.20;99.90;;;;;;4901685;29;20501;-63
2022/12/10 08:37:32;;;;;;;42.00;20.05;;;2.40;99.90;;;;;;4901938;29;20486;-63
2022/12/10 08:39:57;;;;;;;34.57;17.13;;;2.30;99.90;;;;;;4899980;29;20041;-64
2022/12/10 08:42:23;;;;;;;37.87;18.33;;;2.30;99.90;;;;;;4898495;29;20029;-62
2022/12/10 08:44:48;;;;;;;34.23;17.23;;;2.30;99.90;;;;;;4900132;29;20036;-64
2022/12/10 08:47:14;;;;;;;37.30;18.30;;;2.30;99.90;;;;;;4898366;29;20394;-64
2022/12/10 08:49:39;;;;;;;38.50;18.80;;;2.30;99.90;;;;;;4900238;29;20024;-63
2022/12/10 08:52:05;;;;;;;37.27;19.17;;;2.30;99.90;;;;;;4899067;29;20040;-63
2022/12/10 08:54:30;;;;;;;33.17;17.77;;;2.30;99.90;;;;;;4900097;29;20394;-67
2022/12/10 08:56:55;;;;;;;36.73;18.50;;;2.30;99.90;;;;;;4899973;29;20029;-64
2022/12/10 08:59:21;;;;;;;31.77;16.13;;;2.30;99.90;;;;;;4900330;29;20037;-63
2022/12/10 09:01:46;;;;;;;35.03;17.53;;;2.30;99.90;;;;;;4900145;29;20107;-64
2022/12/10 09:04:13;;;;;;;34.40;17.20;;;2.30;99.90;;;;;;4899858;29;20044;-64
2022/12/10 09:06:38;;;;;;;32.63;16.92;;;2.30;99.90;;;;;;4895982;29;20418;-63
2022/12/10 09:09:04;;;;;;;33.67;16.67;;;2.40;99.90;;;;;;4898821;29;20037;-61
2022/12/10 09:11:32;;;;;;;30.43;16.53;;;2.40;99.90;;;;;;4901711;29;20032;-62
2022/12/10 09:13:58;;;;;;;32.83;16.77;;;2.40;99.90;;;;;;4900715;29;20041;-64
2022/12/10 09:16:39;;;;;;;33.03;16.52;;;2.40;99.90;;;;;;4899306;29;20036;-70
2022/12/10 09:19:05;;;;;;;28.30;15.35;;;2.50;99.90;;;;;;4899908;29;20111;-69
2022/12/10 09:21:31;;;;;;;;;;;2.60;99.90;;;;;;4900154;29;20024;-70
2022/12/10 09:23:58;;;;;;;26.52;14.32;;;2.60;99.90;;;;;;4899610;29;19907;-66
2022/12/10 09:26:24;;;;;;;;;;;2.60;99.90;;;;;;4900994;29;20033;-71
2022/12/10 09:28:52;;;;;;;30.50;15.50;;;2.60;99.90;;;;;;4898761;29;20420;-70
2022/12/10 09:31:19;;;;;;;30.98;15.13;;;2.60;99.90;;;;;;4898509;29;20032;-66
2022/12/10 09:33:46;;;;;;;27.27;14.63;;;2.60;99.90;;;;;;4887164;29;20040;-67
2022/12/10 09:36:13;;;;;;;29.38;14.63;;;2.60;99.90;;;;;;4879380;29;20033;-67
2022/12/10 09:38:39;;;;;;;;;;;2.80;99.90;;;;;;4879739;29;20033;-76
2022/12/10 09:41:23;;;;;;;30.23;14.57;;;2.80;99.90;;;;;;4879160;29;19911;-66
2022/12/10 09:44:15;;;;;;;28.73;14.95;;;2.70;99.90;;;;;;4892901;29;20033;-64
2022/12/10 09:47:00;;;;;;;29.02;15.57;;;2.70;99.90;;;;;;4877534;29;20579;-64
2022/12/10 09:50:11;;;;;;;25.90;14.48;;;2.70;99.90;;;;;;4878662;29;20504;-67
2022/12/10 09:52:41;;;;;;;26.85;14.65;;;2.70;99.90;;;;;;4877279;29;20029;-67
2022/12/10 09:55:20;;;;;;;25.38;14.55;;;2.70;99.90;;;;;;4878750;29;20040;-67
2022/12/10 09:57:50;;;;;;;26.70;13.95;;;2.80;99.90;;;;;;4879633;29;20033;-69
2022/12/10 10:00:19;;;;;;;27.25;13.80;;;2.80;99.90;;;;;;4879332;29;20485;-69
2022/12/10 10:02:46;;;;;;;27.20;14.82;;;2.80;99.90;;;;;;4883040;29;20127;-66
2022/12/10 10:05:24;;;;;;;26.40;14.27;;;2.80;99.90;;;;;;4891075;29;20088;-67
2022/12/10 10:07:55;;;;;;;28.15;13.85;;;2.80;99.90;;;;;;4898015;29;20044;-66
2022/12/10 10:10:34;;;;;;;26.38;14.98;;;2.80;99.90;;;;;;4898781;29;20108;-68
2022/12/10 10:13:08;;;;;;;27.75;14.93;;;2.80;99.90;;;;;;4899326;29;20103;-67
2022/12/10 10:15:41;;;;;;;27.45;14.10;;;2.90;99.90;;;;;;4897459;29;20028;-67
2022/12/10 10:18:17;;;;;;;26.38;14.05;;;2.90;99.90;;;;;;4899106;29;20036;-68
2022/12/10 10:20:43;;;;;;;29.42;16.35;;;2.80;99.90;;;;;;4899365;29;20501;-70
2022/12/10 10:23:15;;;;;;;28.17;14.88;;;2.90;99.90;;;;;;4899737;29;20033;-66
2022/12/10 10:25:41;;;;;;;26.48;14.95;;;2.90;99.90;;;;;;4898254;29;20039;-67
2022/12/10 10:28:12;;;;;;;28.60;15.32;;;2.80;99.90;;;;;;4898817;29;20024;-68
2022/12/10 10:30:42;;;;;;;28.83;14.07;;;2.70;99.90;;;;;;4899411;29;20036;-72
2022/12/10 10:33:10;;;;;;;25.95;13.70;;;2.70;99.90;;;;;;4901114;29;20032;-68
2022/12/10 10:35:52;;;;;;;27.95;14.88;;;2.70;99.90;;;;;;4900194;29;20029;-69
2022/12/10 10:38:20;;;;;;;30.15;15.10;;;2.70;99.90;;;;;;4898612;29;20036;-65
2022/12/10 10:40:51;;;;;;;31.13;17.13;;;2.70;99.90;;;;;;4898322;29;20028;-66
2022/12/10 10:43:24;;;;;;;25.52;14.32;;;2.70;99.90;;;;;;4898552;29;20486;-67
2022/12/10 10:46:22;;;;;;;26.05;13.88;;;2.80;99.90;;;;;;4898071;29;20406;-67
2022/12/10 10:48:47;;;;;;;29.17;15.20;;;2.80;99.90;;;;;;4895633;29;20028;-67
2022/12/10 10:51:22;;;;;;;27.07;15.00;;;2.70;99.90;;;;;;4899767;29;20028;-66
2022/12/10 10:53:52;;;;;;;28.60;15.98;;;2.80;99.90;;;;;;4882914;29;20052;-67
2022/12/10 10:56:22;;;;;;;28.33;15.02;;;2.90;99.90;;;;;;4897847;29;20031;-70
2022/12/10 10:59:01;;;;;;;25.08;13.80;;;2.90;99.90;;;;;;4899613;29;20032;-70
2022/12/10 11:01:50;;;;;;;25.58;14.43;;;3.00;99.90;;;;;;4902628;29;20043;-67
2022/12/10 11:04:24;;;;;;;29.63;15.13;;;3.00;99.90;;;;;;4890729;29;20436;-68
2022/12/10 11:06:53;;;;;;;32.92;15.63;;;3.00;99.90;;;;;;4895688;29;20024;-70
2022/12/10 11:09:32;;;;;;;28.02;15.68;;;3.10;99.90;;;;;;4909990;29;20024;-70
2022/12/10 11:12:06;;;;;;;24.48;14.15;;;3.10;99.90;;;;;;4902678;29;20024;-67
2022/12/10 11:14:41;;;;;;;27.85;14.75;;;3.20;99.90;;;;;;4901137;29;20040;-69
2022/12/10 11:17:09;;;;;;;26.13;14.60;;;3.10;99.90;;;;;;4903432;29;20024;-72
2022/12/10 11:19:41;;;;;;;33.83;17.13;;;3.30;99.90;;;;;;4908819;29;20033;-73
2022/12/10 11:22:29;;;;;;;29.73;14.90;;;3.20;99.90;;;;;;4907825;29;20025;-73
2022/12/10 11:24:56;;;;;;;26.35;15.13;;;3.20;99.90;;;;;;4897551;29;20386;-74
2022/12/10 11:27:40;;;;;;;;;;;3.30;99.90;;;;;;4898847;29;20031;-73
2022/12/10 11:30:12;;;;;;;26.23;13.82;;;3.40;99.90;;;;;;4899229;29;19914;-72
2022/12/10 11:33:06;;;;;;;28.02;14.32;;;3.40;99.90;;;;;;4903118;29;20037;-71
2022/12/10 11:36:06;;;;;;;27.98;14.63;;;3.40;99.90;;;;;;4902984;29;20028;-72
2022/12/10 11:38:43;;;;;;;26.33;14.88;;;3.40;99.90;;;;;;4900940;29;20024;-67
2022/12/10 11:41:47;;;;;;;26.13;14.48;;;3.50;99.90;;;;;;4902209;29;20032;-69
2022/12/10 11:44:43;;;;;;;28.45;14.70;;;3.50;99.90;;;;;;4900935;29;20076;-75
2022/12/10 11:47:37;;;;;;;23.65;13.57;;;3.50;99.90;;;;;;4900908;29;20052;-74
2022/12/10 11:50:20;;;;;;;25.58;14.38;;;3.60;99.90;;;;;;4901440;29;20119;-75
2022/12/10 11:53:22;;;;;;;24.75;13.93;;;3.50;99.90;;;;;;4901589;29;20052;-74
2022/12/10 11:56:13;;;;;;;23.33;13.45;;;3.60;99.90;;;;;;4901668;29;20051;-72
2022/12/10 11:58:45;;;;;;;24.63;13.85;;;3.70;99.90;;;;;;4899982;29;20397;-71
2022/12/10 12:01:39;;;;;;;27.10;13.90;;;3.90;99.90;;;;;;4900174;29;20036;-71
2022/12/10 12:04:19;;;;;;;24.65;14.00;;;3.80;99.90;;;;;;4901101;29;20051;-71
2022/12/10 12:06:53;;;;;;;31.83;15.32;;;3.70;99.90;;;;;;4900201;29;20021;-71
2022/12/10 12:09:57;;;;;;;25.75;14.60;;;3.70;99.90;;;;;;4901263;29;20028;-71
2022/12/10 12:12:36;;;;;;;26.85;14.95;;;3.80;99.90;;;;;;4889032;29;20033;-73
2022/12/10 12:15:17;;;;;;;23.27;13.95;;;3.80;99.90;;;;;;4915230;29;20096;-71
2022/12/10 12:17:48;;;;;;;24.58;13.07;;;3.80;99.90;;;;;;4899217;29;20032;-73
2022/12/10 12:20:27;;;;;;;24.08;13.50;;;3.80;99.90;;;;;;4896524;29;20167;-69
2022/12/10 12:23:02;;;;;;;26.73;13.93;;;3.80;99.90;;;;;;4897186;29;20033;-81
2022/12/10 12:25:56;;;;;;;25.33;13.95;;;3.70;99.90;;;;;;4899189;29;20123;-73
2022/12/10 12:28:25;;;;;;;24.55;13.02;;;3.70;99.90;;;;;;4895608;29;20477;-74
2022/12/10 12:31:05;;;;;;;22.77;14.00;;;3.70;99.90;;;;;;4898674;29;20126;-73
2022/12/10 12:33:58;;;;;;;23.95;13.98;;;3.60;99.90;;;;;;4880801;29;20033;-73
2022/12/10 12:36:28;;;;;;;22.77;13.57;;;3.60;99.90;;;;;;4881400;29;20077;-72
2022/12/10 12:39:35;;;;;;;24.00;13.73;;;3.60;99.90;;;;;;4880269;29;20455;-72
2022/12/10 12:42:12;;;;;;;21.40;12.73;;;3.50;99.90;;;;;;4842567;29;20128;-73
2022/12/10 12:44:43;;;;;;;22.15;12.93;;;3.60;99.90;;;;;;4868662;29;20045;-69
2022/12/10 12:47:26;;;;;;;24.30;13.35;;;3.60;99.90;;;;;;4860731;29;20034;-74
2022/12/10 12:49:52;;;;;;;26.73;13.52;;;3.60;99.90;;;;;;4846108;29;20029;-72
2022/12/10 12:52:21;;;;;;;21.60;12.98;;;3.50;99.90;;;;;;4845763;29;20044;-70
2022/12/10 12:54:47;;;;;;;22.02;12.75;;;3.50;99.90;;;;;;4855100;29;20466;-72
2022/12/10 12:57:30;;;;;;;24.93;14.03;;;3.50;99.90;;;;;;4863198;29;20150;-71
2022/12/10 13:00:10;;;;;;;24.17;13.90;;;3.50;99.90;;;;;;4878598;29;20391;-74
2022/12/10 13:03:05;;;;;;;23.17;13.40;;;3.50;99.90;;;;;;4845600;29;20036;-70
2022/12/10 13:05:38;;;;;;;22.20;12.95;;;3.40;99.90;;;;;;4845388;29;20069;-72